Time;durP1;ratioP1;P1;durP2;ratioP2;P2;SDS_P1;SDS_P2;PMS_P1;PMS_P2;Temp;Humidity;BMP_temperature;BMP_pressure;BME280_temperature;BME280_humidity;BME280_pressure;Samples;Min_cycle;Max_cycle;Signal;HPM_P1;HPM_P2
2023/01/24 05:00:36;;;;;;;1.75;1.65;;;3.20;99.90;;;;;;5830581;23;20235;-67
2023/01/24 05:03:02;;;;;;;4.63;1.80;;;3.20;99.90;;;;;;4945555;28;20209;-67
2023/01/24 05:05:29;;;;;;;3.35;1.95;;;3.20;99.90;;;;;;4952873;28;20696;-67
2023/01/24 05:07:56;;;;;;;2.72;2.55;;;3.20;99.90;;;;;;4947645;28;20229;-67
2023/01/24 05:10:23;;;;;;;1.77;1.67;;;3.20;99.90;;;;;;4951650;28;20225;-67
2023/01/24 05:12:50;;;;;;;2.15;1.25;;;3.20;99.90;;;;;;4951587;28;20240;-66
2023/01/24 05:15:17;;;;;;;1.88;1.83;;;3.10;99.90;;;;;;4947908;28;20213;-66
2023/01/24 05:17:45;;;;;;;2.97;2.30;;;3.10;99.90;;;;;;4951715;29;20220;-67
2023/01/24 05:20:13;;;;;;;1.92;1.92;;;3.10;99.90;;;;;;4951918;28;20317;-66
2023/01/24 05:22:40;;;;;;;2.85;2.42;;;3.10;99.90;;;;;;4952299;28;20201;-66
2023/01/24 05:25:07;;;;;;;11.50;1.95;;;3.10;99.90;;;;;;4952254;28;20237;-69
2023/01/24 05:27:34;;;;;;;2.88;2.13;;;3.20;99.90;;;;;;4951609;29;20309;-69
2023/01/24 05:30:01;;;;;;;1.67;1.52;;;3.10;99.90;;;;;;4952681;28;20703;-67
2023/01/24 05:32:28;;;;;;;4.43;2.20;;;3.10;99.90;;;;;;4944779;28;20232;-67
2023/01/24 05:34:56;;;;;;;4.75;1.98;;;3.10;99.90;;;;;;4951562;28;20220;-67
2023/01/24 05:37:22;;;;;;;2.85;1.92;;;3.10;99.90;;;;;;4966645;23;20547;-68
2023/01/24 05:39:49;;;;;;;4.15;3.50;;;3.10;99.90;;;;;;4971097;28;20208;-68
2023/01/24 05:42:16;;;;;;;3.85;2.70;;;3.10;99.90;;;;;;4970314;28;20209;-68
2023/01/24 05:44:42;;;;;;;2.28;2.17;;;3.10;99.90;;;;;;4970379;28;20642;-68
2023/01/24 05:47:09;;;;;;;7.38;2.03;;;3.10;99.90;;;;;;4969464;28;20215;-68
2023/01/24 05:49:36;;;;;;;6.07;3.15;;;3.10;99.90;;;;;;4952306;28;20224;-68
2023/01/24 05:52:04;;;;;;;5.97;2.33;;;3.10;99.90;;;;;;4949261;28;20210;-67
2023/01/24 05:54:31;;;;;;;2.55;2.45;;;3.10;99.90;;;;;;4950610;29;20217;-68
2023/01/24 05:56:57;;;;;;;1.20;1.20;;;3.10;99.90;;;;;;4945618;28;20524;-68
2023/01/24 05:59:24;;;;;;;3.50;3.28;;;3.10;99.90;;;;;;4947016;28;20224;-68
2023/01/24 06:01:51;;;;;;;1.50;1.50;;;3.10;99.90;;;;;;4952111;28;20209;-68
2023/01/24 06:04:17;;;;;;;6.70;3.13;;;3.10;99.90;;;;;;4944009;28;20558;-68
2023/01/24 06:06:44;;;;;;;3.58;2.42;;;3.10;99.90;;;;;;4952319;28;20229;-68
2023/01/24 06:09:12;;;;;;;3.15;2.92;;;3.10;99.90;;;;;;4952079;28;20607;-68
2023/01/24 06:11:39;;;;;;;1.50;1.50;;;3.10;99.90;;;;;;4951139;28;20669;-68
2023/01/24 06:14:06;;;;;;;11.82;2.35;;;3.10;99.90;;;;;;4950284;28;20206;-68
2023/01/24 06:16:32;;;;;;;3.92;1.95;;;3.10;99.90;;;;;;4951686;29;20205;-68
2023/01/24 06:18:59;;;;;;;1.60;1.60;;;3.10;99.90;;;;;;4950194;28;20236;-68
2023/01/24 06:21:41;;;;;;;7.47;3.05;;;3.00;99.90;;;;;;4952964;29;20224;-68
2023/01/24 06:24:11;;;;;;;1.60;1.48;;;3.00;99.90;;;;;;4950470;28;20208;-68
2023/01/24 06:26:40;;;;;;;3.03;1.83;;;3.00;99.90;;;;;;4944122;29;20229;-68
2023/01/24 06:29:09;;;;;;;2.38;2.22;;;3.00;99.90;;;;;;4952692;28;20258;-68
2023/01/24 06:31:44;;;;;;;2.83;1.80;;;3.00;99.90;;;;;;4944274;29;20216;-68
2023/01/24 06:34:22;;;;;;;1.77;1.75;;;3.00;99.90;;;;;;4949137;28;20582;-68
2023/01/24 06:36:59;;;;;;;2.53;2.15;;;3.10;99.90;;;;;;4952535;29;20201;-68
2023/01/24 06:39:27;;;;;;;2.88;2.70;;;3.10;99.90;;;;;;4951680;28;20217;-68
2023/01/24 06:41:55;;;;;;;2.72;2.63;;;3.10;99.90;;;;;;4952355;28;20206;-68
2023/01/24 06:44:23;;;;;;;2.92;2.72;;;3.10;99.90;;;;;;4954126;29;20209;-68
2023/01/24 06:46:50;;;;;;;4.88;3.70;;;3.10;99.90;;;;;;4958720;28;20225;-68
2023/01/24 06:49:16;;;;;;;2.83;2.67;;;3.00;99.90;;;;;;4958410;28;20229;-68
2023/01/24 06:51:43;;;;;;;3.35;3.00;;;3.00;99.90;;;;;;4961994;28;20641;-68
2023/01/24 06:54:10;;;;;;;4.25;3.10;;;3.00;99.90;;;;;;4957685;28;20205;-68
2023/01/24 06:56:36;;;;;;;4.53;2.00;;;3.00;99.90;;;;;;4955849;29;20205;-68
2023/01/24 06:59:05;;;;;;;1.30;1.20;;;3.00;99.90;;;;;;4961565;28;20597;-68
2023/01/24 07:01:31;;;;;;;2.08;1.98;;;3.00;99.90;;;;;;4956951;28;20213;-68
2023/01/24 07:03:58;;;;;;;3.25;2.55;;;3.00;99.90;;;;;;4954760;28;20319;-68
2023/01/24 07:06:26;;;;;;;2.67;2.00;;;3.00;99.90;;;;;;4952634;28;20229;-68
2023/01/24 07:08:53;;;;;;;5.47;3.00;;;3.00;99.90;;;;;;4955382;28;20225;-68
2023/01/24 07:11:22;;;;;;;2.45;2.15;;;3.00;99.90;;;;;;4955197;28;20536;-68
2023/01/24 07:13:49;;;;;;;2.15;2.05;;;2.90;99.90;;;;;;4954545;28;20217;-67
2023/01/24 07:16:17;;;;;;;3.10;1.33;;;2.90;99.90;;;;;;4956070;28;20235;-68
2023/01/24 07:18:44;;;;;;;2.08;1.98;;;2.90;99.90;;;;;;4953975;28;20229;-68
2023/01/24 07:21:12;;;;;;;2.65;2.55;;;2.90;99.90;;;;;;4952537;28;20701;-68
2023/01/24 07:23:45;;;;;;;1.65;1.10;;;2.90;99.90;;;;;;4955001;28;20201;-68
2023/01/24 07:26:12;;;;;;;3.53;2.00;;;2.90;99.90;;;;;;4955041;28;20221;-68
2023/01/24 07:28:39;;;;;;;3.35;2.15;;;2.90;99.90;;;;;;4954803;28;20221;-68
2023/01/24 07:31:07;;;;;;;2.33;2.13;;;2.90;99.90;;;;;;4952369;28;20685;-68
2023/01/24 07:33:35;;;;;;;3.55;3.40;;;2.90;99.90;;;;;;4953939;28;20227;-68
2023/01/24 07:36:01;;;;;;;4.45;2.45;;;3.00;99.90;;;;;;4954485;28;20206;-68
2023/01/24 07:38:28;;;;;;;3.13;2.03;;;3.00;99.90;;;;;;4954771;28;20233;-68
2023/01/24 07:40:55;;;;;;;2.92;2.58;;;3.00;99.90;;;;;;4953375;29;20213;-68
2023/01/24 07:43:21;;;;;;;2.35;1.90;;;3.00;99.90;;;;;;4954545;28;20214;-68
2023/01/24 07:45:48;;;;;;;2.10;2.00;;;3.00;99.90;;;;;;4953452;28;20236;-68
2023/01/24 07:48:15;;;;;;;3.53;2.10;;;3.00;99.90;;;;;;4954223;28;20603;-68
2023/01/24 07:50:43;;;;;;;1.83;1.83;;;3.00;99.90;;;;;;4952830;28;20213;-68
2023/01/24 07:53:10;;;;;;;4.40;2.47;;;3.00;99.90;;;;;;4952608;29;20212;-68
2023/01/24 07:55:36;;;;;;;9.82;4.95;;;3.00;99.90;;;;;;4953796;29;20224;-69
2023/01/24 07:58:03;;;;;;;1.77;0.95;;;3.00;99.90;;;;;;4953949;28;20225;-68
2023/01/24 08:00:30;;;;;;;2.60;2.42;;;3.00;99.90;;;;;;4948396;28;20217;-69
2023/01/24 08:02:57;;;;;;;1.63;1.60;;;3.00;99.90;;;;;;4951222;28;20255;-69
2023/01/24 08:05:24;;;;;;;5.88;1.15;;;3.00;99.90;;;;;;4953913;28;20236;-69
2023/01/24 08:07:54;;;;;;;2.00;1.95;;;3.00;99.90;;;;;;4954638;28;20252;-69
2023/01/24 08:10:21;;;;;;;4.40;4.00;;;3.10;99.90;;;;;;4954682;28;20292;-68
2023/01/24 08:12:49;;;;;;;3.13;2.92;;;3.00;99.90;;;;;;4948400;28;20209;-68
2023/01/24 08:15:15;;;;;;;3.28;2.05;;;3.00;99.90;;;;;;4949594;28;20792;-69
2023/01/24 08:17:42;;;;;;;2.45;2.45;;;3.00;99.90;;;;;;4954454;28;20696;-69
2023/01/24 08:20:10;;;;;;;3.00;2.75;;;3.00;99.90;;;;;;4950476;28;20205;-69
2023/01/24 08:22:39;;;;;;;1.70;1.60;;;3.00;99.90;;;;;;4953574;28;20674;-69
2023/01/24 08:25:08;;;;;;;2.63;2.53;;;2.90;99.90;;;;;;4953832;28;20220;-69
2023/01/24 08:27:35;;;;;;;1.40;1.30;;;2.90;99.90;;;;;;4954953;28;20230;-69
2023/01/24 08:30:01;;;;;;;4.28;2.22;;;2.90;99.90;;;;;;4951828;28;20232;-69
2023/01/24 08:32:28;;;;;;;1.80;1.70;;;3.00;99.90;;;;;;4950446;28;20685;-69
2023/01/24 08:34:55;;;;;;;2.40;2.30;;;3.00;99.90;;;;;;4952499;28;20232;-70
2023/01/24 08:37:22;;;;;;;1.98;1.80;;;3.00;99.90;;;;;;4952625;28;20222;-68
2023/01/24 08:39:48;;;;;;;5.38;3.95;;;3.00;99.90;;;;;;4954788;28;20197;-68
2023/01/24 08:42:16;;;;;;;2.08;1.90;;;3.00;99.90;;;;;;4952687;28;20220;-68
2023/01/24 08:44:43;;;;;;;3.28;3.08;;;3.00;99.90;;;;;;4953760;28;20206;-68
2023/01/24 08:47:10;;;;;;;2.75;2.55;;;3.00;99.90;;;;;;4952586;28;20229;-67
2023/01/24 08:49:37;;;;;;;1.58;1.50;;;3.00;99.90;;;;;;4953396;28;20589;-67
2023/01/24 08:52:04;;;;;;;1.10;1.10;;;3.00;99.90;;;;;;4952768;28;20236;-68
2023/01/24 08:54:32;;;;;;;1.60;1.60;;;3.00;99.90;;;;;;4954484;28;20233;-68
2023/01/24 08:56:58;;;;;;;4.18;2.97;;;3.00;99.90;;;;;;4946731;28;20556;-68
2023/01/24 08:59:27;;;;;;;2.30;1.88;;;3.00;99.90;;;;;;4952099;29;20232;-68
2023/01/24 09:01:53;;;;;;;3.90;3.00;;;3.00;99.90;;;;;;4953621;28;20667;-68
2023/01/24 09:04:20;;;;;;;4.05;3.13;;;3.00;99.90;;;;;;4950508;28;20557;-68
2023/01/24 09:06:47;;;;;;;4.50;2.38;;;3.00;99.90;;;;;;4953704;29;20251;-67
2023/01/24 09:09:15;;;;;;;2.65;2.20;;;3.00;99.90;;;;;;4953445;28;20273;-67
2023/01/24 09:11:42;;;;;;;2.88;2.65;;;2.90;99.90;;;;;;4952765;28;20220;-68
2023/01/24 09:14:09;;;;;;;7.72;4.07;;;2.90;99.90;;;;;;4952786;28;20213;-68
2023/01/24 09:16:37;;;;;;;3.53;3.42;;;3.00;99.90;;;;;;4952026;29;20212;-68
2023/01/24 09:19:03;;;;;;;2.42;2.30;;;3.00;99.90;;;;;;4946941;28;20240;-69
2023/01/24 09:21:30;;;;;;;5.07;3.05;;;2.90;99.90;;;;;;4953467;28;20202;-69
2023/01/24 09:23:57;;;;;;;3.75;2.25;;;3.00;99.90;;;;;;4950527;29;20216;-68
2023/01/24 09:26:24;;;;;;;3.13;2.83;;;3.00;99.90;;;;;;4953615;28;20221;-69
2023/01/24 09:28:51;;;;;;;5.45;1.80;;;3.00;99.90;;;;;;4950979;28;20226;-68
2023/01/24 09:31:17;;;;;;;3.35;3.15;;;3.10;99.90;;;;;;4952727;28;20570;-68
2023/01/24 09:33:46;;;;;;;1.75;1.40;;;3.10;99.90;;;;;;4951460;28;20554;-68
2023/01/24 09:36:12;;;;;;;1.80;1.75;;;3.10;99.90;;;;;;4953468;28;20208;-68
2023/01/24 09:38:39;;;;;;;2.05;1.95;;;3.10;99.90;;;;;;4950695;28;20608;-68
2023/01/24 09:41:16;;;;;;;6.47;2.72;;;3.10;99.90;;;;;;4951599;28;20209;-68
2023/01/24 09:43:47;;;;;;;2.67;2.47;;;3.00;99.90;;;;;;4953464;28;20212;-68
2023/01/24 09:46:30;;;;;;;2.35;2.30;;;3.00;99.90;;;;;;4951815;29;20241;-68
2023/01/24 09:49:05;;;;;;;1.83;1.83;;;3.00;99.90;;;;;;4950240;28;20221;-68
2023/01/24 09:51:36;;;;;;;2.33;2.22;;;3.00;99.90;;;;;;4950382;28;20213;-68
2023/01/24 09:54:05;;;;;;;2.33;2.33;;;3.00;99.90;;;;;;4953662;28;20205;-68
2023/01/24 09:56:36;;;;;;;3.28;2.85;;;3.10;99.90;;;;;;4949492;28;20234;-68
2023/01/24 09:59:16;;;;;;;2.05;2.05;;;3.00;99.90;;;;;;4950616;28;20252;-69
2023/01/24 10:01:44;;;;;;;3.08;2.33;;;3.00;99.90;;;;;;4952557;28;20216;-69
2023/01/24 10:04:18;;;;;;;2.05;1.83;;;3.00;99.90;;;;;;4949588;29;20213;-68
2023/01/24 10:07:19;;;;;;;2.10;2.00;;;3.00;99.90;;;;;;4947000;28;20232;-68
2023/01/24 10:09:59;;;;;;;3.75;3.35;;;3.00;99.90;;;;;;4946113;29;20201;-69
2023/01/24 10:12:44;;;;;;;2.88;2.65;;;3.00;99.90;;;;;;4951311;28;20201;-69
2023/01/24 10:15:31;;;;;;;2.70;2.47;;;3.00;99.90;;;;;;4945248;28;20205;-68
2023/01/24 10:18:11;;;;;;;3.33;3.10;;;3.00;99.90;;;;;;4948811;28;20769;-68
2023/01/24 10:21:16;;;;;;;3.78;2.78;;;3.00;99.90;;;;;;4949201;28;20212;-68
2023/01/24 10:23:48;;;;;;;11.35;4.13;;;3.00;99.90;;;;;;4925739;29;20216;-69
2023/01/24 10:26:19;;;;;;;6.50;3.15;;;3.10;99.90;;;;;;4952661;28;20224;-68
2023/01/24 10:28:50;;;;;;;4.05;3.80;;;3.10;99.90;;;;;;4951395;28;20230;-68
2023/01/24 10:31:22;;;;;;;1.95;1.85;;;3.10;99.90;;;;;;4942563;28;20555;-68
2023/01/24 10:33:53;;;;;;;2.42;2.33;;;3.10;99.90;;;;;;4947445;28;20285;-68
2023/01/24 10:36:29;;;;;;;8.35;3.40;;;3.10;99.90;;;;;;4948473;28;20206;-68
2023/01/24 10:38:56;;;;;;;3.42;3.22;;;3.10;99.90;;;;;;4952415;28;20255;-68
2023/01/24 10:41:25;;;;;;;9.50;5.10;;;3.10;99.90;;;;;;4951999;28;20582;-68
2023/01/24 10:43:56;;;;;;;6.32;1.95;;;3.10;99.90;;;;;;4948721;28;20308;-68
2023/01/24 10:46:58;;;;;;;4.82;2.97;;;3.10;99.90;;;;;;4947695;29;20224;-68
2023/01/24 10:49:28;;;;;;;3.53;3.22;;;3.10;99.90;;;;;;4926778;28;20666;-67
2023/01/24 10:52:16;;;;;;;3.97;3.75;;;3.10;99.90;;;;;;4951953;28;20204;-69
2023/01/24 10:54:53;;;;;;;1.73;1.67;;;3.20;99.90;;;;;;4949779;28;20201;-68
2023/01/24 10:57:39;;;;;;;2.03;1.70;;;3.20;99.90;;;;;;4950200;28;20545;-68
2023/01/24 11:00:25;;;;;;;3.15;2.90;;;3.10;99.90;;;;;;4947460;29;20655;-68
2023/01/24 11:02:54;;;;;;;0.30;0.30;;;3.10;99.90;;;;;;4938059;29;20587;-68
2023/01/24 11:05:23;;;;;;;5.45;3.22;;;3.00;99.90;;;;;;4950459;28;20225;-68
2023/01/24 11:07:52;;;;;;;3.55;3.35;;;3.10;99.90;;;;;;4951219;28;20626;-68
2023/01/24 11:10:23;;;;;;;5.93;5.38;;;3.10;99.90;;;;;;4950822;28;20582;-68
2023/01/24 11:12:52;;;;;;;4.78;2.40;;;3.00;99.90;;;;;;4951061;28;20225;-68
2023/01/24 11:15:23;;;;;;;6.47;2.95;;;3.10;99.90;;;;;;4950654;28;20627;-68
2023/01/24 11:17:57;;;;;;;3.10;2.58;;;3.10;99.90;;;;;;4954068;28;20217;-68
2023/01/24 11:20:32;;;;;;;3.75;3.33;;;3.10;99.90;;;;;;4945993;29;20216;-68
2023/01/24 11:23:12;;;;;;;2.70;2.60;;;3.00;99.90;;;;;;4946137;28;20216;-68
2023/01/24 11:25:53;;;;;;;0.93;0.93;;;3.00;99.90;;;;;;4946829;29;20209;-68
2023/01/24 11:28:30;;;;;;;3.28;2.97;;;2.90;99.90;;;;;;4951027;28;20233;-68
2023/01/24 11:31:01;;;;;;;3.78;3.13;;;2.90;99.90;;;;;;4949322;28;20209;-67
2023/01/24 11:33:57;;;;;;;2.67;2.58;;;3.00;99.90;;;;;;4949815;28;20217;-68
2023/01/24 11:36:37;;;;;;;2.97;2.75;;;3.00;99.90;;;;;;4952174;28;20237;-68
2023/01/24 11:39:14;;;;;;;3.80;2.85;;;3.00;99.90;;;;;;4967874;23;20248;-66
2023/01/24 11:41:49;;;;;;;1.70;1.60;;;3.00;99.90;;;;;;4948301;29;20201;-66
2023/01/24 11:44:47;;;;;;;2.65;2.45;;;2.90;99.90;;;;;;4952188;28;20220;-66
2023/01/24 11:47:16;;;;;;;14.15;5.47;;;3.00;99.90;;;;;;4946798;28;20233;-66
2023/01/24 11:50:02;;;;;;;3.50;3.30;;;3.00;99.90;;;;;;4954997;28;20245;-66
2023/01/24 11:52:53;;;;;;;6.28;3.65;;;3.10;99.90;;;;;;4952681;28;20224;-66
2023/01/24 11:55:34;;;;;;;7.13;3.50;;;3.20;99.90;;;;;;4950966;28;20206;-66
2023/01/24 11:58:18;;;;;;;3.33;3.10;;;3.10;99.90;;;;;;4954681;28;20209;-66
2023/01/24 12:00:55;;;;;;;4.50;2.80;;;3.10;99.90;;;;;;4946480;28;20205;-66
2023/01/24 12:04:00;;;;;;;8.43;4.00;;;3.10;99.90;;;;;;4949308;29;20217;-66
2023/01/24 12:06:37;;;;;;;1.75;1.58;;;3.10;99.90;;;;;;4894646;29;20215;-66
2023/01/24 12:09:16;;;;;;;8.20;3.28;;;3.10;99.90;;;;;;4944496;28;20588;-66
2023/01/24 12:11:49;;;;;;;4.13;3.88;;;3.10;99.90;;;;;;4955527;28;20209;-66
2023/01/24 12:14:59;;;;;;;7.35;4.45;;;3.10;99.90;;;;;;4946113;28;20224;-66
2023/01/24 12:17:42;;;;;;;2.92;2.75;;;3.00;99.90;;;;;;4953443;29;20221;-66
2023/01/24 12:20:25;;;;;;;7.65;5.07;;;3.00;99.90;;;;;;4954549;28;20217;-67
2023/01/24 12:22:54;;;;;;;4.07;3.63;;;3.00;99.90;;;;;;4954457;29;20214;-67
2023/01/24 12:25:26;;;;;;;3.28;3.03;;;3.00;99.90;;;;;;4951895;29;20685;-66
2023/01/24 12:27:57;;;;;;;10.43;5.28;;;3.00;99.90;;;;;;4953336;28;20684;-67
2023/01/24 12:30:32;;;;;;;6.55;4.60;;;3.00;99.90;;;;;;4953536;29;20236;-66
2023/01/24 12:33:05;;;;;;;10.35;4.93;;;3.00;99.90;;;;;;4953320;29;20211;-66
2023/01/24 12:35:35;;;;;;;2.58;2.40;;;2.90;99.90;;;;;;4952359;28;20217;-66
2023/01/24 12:38:11;;;;;;;4.03;3.67;;;2.90;99.90;;;;;;4952979;28;20206;-67
2023/01/24 12:40:47;;;;;;;5.60;2.45;;;2.80;99.90;;;;;;4947177;29;20237;-67
2023/01/24 12:43:21;;;;;;;4.97;4.55;;;2.80;99.90;;;;;;4953183;29;20216;-67
2023/01/24 12:45:57;;;;;;;7.88;3.35;;;2.80;99.90;;;;;;4953498;28;20209;-67
2023/01/24 12:48:32;;;;;;;5.45;4.32;;;2.80;99.90;;;;;;4953135;28;20229;-67
2023/01/24 12:51:07;;;;;;;2.95;2.75;;;2.80;99.90;;;;;;4954565;28;20232;-67
2023/01/24 12:53:40;;;;;;;2.33;1.95;;;2.80;99.90;;;;;;4954677;28;20209;-68
2023/01/24 12:56:14;;;;;;;4.05;2.63;;;2.80;99.90;;;;;;4953130;28;20205;-68
2023/01/24 12:58:44;;;;;;;3.33;1.88;;;2.70;99.90;;;;;;4947082;28;20229;-66
2023/01/24 13:01:43;;;;;;;6.78;5.47;;;2.70;99.90;;;;;;4953871;29;20296;-66
2023/01/24 13:04:19;;;;;;;6.50;5.95;;;2.70;99.90;;;;;;4953617;28;20216;-66
2023/01/24 13:06:55;;;;;;;5.28;4.22;;;2.70;99.90;;;;;;4947457;29;20225;-67
2023/01/24 13:09:28;;;;;;;5.07;4.57;;;2.70;99.90;;;;;;4953107;28;20232;-66
2023/01/24 13:11:56;;;;;;;2.65;2.55;;;2.70;99.90;;;;;;4954291;29;20213;-67
2023/01/24 13:14:29;;;;;;;4.25;3.78;;;2.70;99.90;;;;;;4952464;29;20225;-67
2023/01/24 13:17:23;;;;;;;8.07;4.95;;;2.70;99.90;;;;;;4954008;29;20205;-67
2023/01/24 13:20:05;;;;;;;5.60;4.18;;;2.70;99.90;;;;;;4934249;29;20230;-67
2023/01/24 13:22:47;;;;;;;5.72;2.63;;;2.70;99.90;;;;;;4936259;29;20261;-67
2023/01/24 13:25:28;;;;;;;3.90;2.83;;;2.80;99.90;;;;;;4952704;29;20586;-67
2023/01/24 13:28:00;;;;;;;5.93;3.03;;;2.80;99.90;;;;;;4955751;29;20276;-67
2023/01/24 13:30:44;;;;;;;8.88;3.28;;;2.70;99.90;;;;;;4956805;28;20197;-68
2023/01/24 13:33:16;;;;;;;4.00;3.40;;;2.70;99.90;;;;;;4957363;29;20539;-67
2023/01/24 13:35:49;;;;;;;6.03;3.60;;;2.70;99.90;;;;;;4955758;29;20245;-67
2023/01/24 13:38:20;;;;;;;3.55;3.38;;;2.70;99.90;;;;;;4957642;28;20221;-67
2023/01/24 13:40:58;;;;;;;23.15;9.02;;;2.70;99.90;;;;;;4959206;28;20232;-67
2023/01/24 13:43:54;;;;;;;3.63;2.45;;;2.70;99.90;;;;;;4962229;28;20209;-67
2023/01/24 13:47:00;;;;;;;125.97;60.45;;;2.60;99.90;;;;;;4969064;28;20315;-67
2023/01/24 13:49:45;;;;;;;17.80;10.15;;;2.50;99.90;;;;;;4957761;28;20700;-67
2023/01/24 13:52:38;;;;;;;6.68;4.00;;;2.50;99.90;;;;;;4957719;29;20213;-67
2023/01/24 13:55:58;;;;;;;3.58;2.95;;;2.60;99.90;;;;;;4952109;29;20205;-67
2023/01/24 13:58:30;;;;;;;3.95;3.60;;;2.60;99.90;;;;;;4951587;28;20230;-67
2023/01/24 14:00:59;;;;;;;4.05;1.65;;;2.60;99.90;;;;;;4953375;29;20644;-67
2023/01/24 14:03:33;;;;;;;5.97;3.30;;;2.60;99.90;;;;;;4954129;29;20217;-67
2023/01/24 14:06:11;;;;;;;1.88;1.73;;;2.50;99.90;;;;;;4953779;28;20204;-67
2023/01/24 14:09:00;;;;;;;1.70;1.45;;;2.50;99.90;;;;;;4947301;28;20225;-67
2023/01/24 14:11:53;;;;;;;7.60;3.70;;;2.50;99.90;;;;;;4955554;28;20316;-67
2023/01/24 14:14:38;;;;;;;1.05;1.05;;;2.40;99.90;;;;;;4965906;28;20213;-67
2023/01/24 14:17:26;;;;;;;8.23;2.75;;;2.40;99.90;;;;;;4961053;28;20555;-67
2023/01/24 14:19:56;;;;;;;4.75;3.35;;;2.40;99.90;;;;;;4961158;28;20225;-66
2023/01/24 14:22:32;;;;;;;1.63;1.63;;;2.40;99.90;;;;;;4959085;28;20209;-66
2023/01/24 14:25:05;;;;;;;1.88;1.77;;;2.30;99.90;;;;;;4955341;28;20202;-66
2023/01/24 14:27:38;;;;;;;3.13;2.97;;;2.20;99.90;;;;;;4952292;28;20646;-67
2023/01/24 14:30:37;;;;;;;4.55;3.72;;;2.30;99.90;;;;;;4950556;28;20225;-67
2023/01/24 14:33:20;;;;;;;3.42;3.05;;;2.20;99.90;;;;;;4945745;29;20217;-67
2023/01/24 14:35:59;;;;;;;3.50;3.40;;;2.20;99.90;;;;;;4948556;29;20221;-67
2023/01/24 14:38:25;;;;;;;3.42;2.13;;;2.30;99.90;;;;;;4952001;28;20241;-67
2023/01/24 14:40:55;;;;;;;12.85;3.60;;;2.20;99.90;;;;;;4953001;28;20565;-67
2023/01/24 14:43:29;;;;;;;3.35;3.13;;;2.20;99.90;;;;;;4950585;29;20658;-66
2023/01/24 14:45:56;;;;;;;2.30;2.20;;;2.10;99.90;;;;;;4951143;29;20219;-67
2023/01/24 14:48:24;;;;;;;4.90;3.95;;;2.20;99.90;;;;;;4951846;28;20233;-67
2023/01/24 14:51:06;;;;;;;7.30;5.00;;;2.20;99.90;;;;;;4951164;29;20319;-67
2023/01/24 14:53:34;;;;;;;4.65;2.70;;;2.30;99.90;;;;;;4952229;29;20221;-67
2023/01/24 14:56:06;;;;;;;6.57;4.38;;;2.30;99.90;;;;;;4951419;29;20237;-67
2023/01/24 14:58:33;;;;;;;4.63;4.03;;;2.30;99.90;;;;;;4951754;28;20240;-67
2023/01/24 15:01:01;;;;;;;8.93;3.13;;;2.30;99.90;;;;;;4949828;28;20569;-67
2023/01/24 15:03:30;;;;;;;4.35;2.53;;;2.30;99.90;;;;;;4948183;29;20217;-67
2023/01/24 15:06:00;;;;;;;4.85;4.28;;;2.30;99.90;;;;;;4950371;29;20212;-67
2023/01/24 15:08:29;;;;;;;1.23;0.82;;;2.30;99.90;;;;;;4951893;28;20241;-67
2023/01/24 15:11:01;;;;;;;4.22;4.07;;;2.30;99.90;;;;;;4952543;28;20672;-67
2023/01/24 15:13:32;;;;;;;4.00;3.40;;;2.20;99.90;;;;;;4954967;28;20580;-67
2023/01/24 15:15:59;;;;;;;5.78;3.38;;;2.20;99.90;;;;;;4953260;28;20209;-67
2023/01/24 15:18:40;;;;;;;5.88;3.45;;;2.30;99.90;;;;;;4950878;28;20228;-67
2023/01/24 15:21:18;;;;;;;11.27;5.82;;;2.30;99.90;;;;;;4955699;29;20204;-67
2023/01/24 15:23:51;;;;;;;8.02;4.72;;;2.30;99.90;;;;;;4954443;28;20666;-67
2023/01/24 15:26:39;;;;;;;4.00;3.47;;;2.40;99.90;;;;;;4955138;28;20220;-67
2023/01/24 15:29:41;;;;;;;9.32;6.07;;;2.20;99.90;;;;;;4955037;28;20253;-67
2023/01/24 15:32:40;;;;;;;2.88;2.65;;;2.20;99.90;;;;;;4952870;29;20201;-67
2023/01/24 15:35:35;;;;;;;6.35;5.05;;;2.20;99.90;;;;;;4893428;29;20978;-66
2023/01/24 15:38:15;;;;;;;8.40;3.58;;;2.20;99.90;;;;;;4951033;28;20205;-67
2023/01/24 15:40:52;;;;;;;3.40;1.90;;;2.20;99.90;;;;;;4947755;29;20616;-67
2023/01/24 15:49:17;;;;;;;7.88;6.47;;;2.20;99.90;;;;;;4935642;29;20256;-67
2023/01/24 15:51:44;;;;;;;4.10;3.85;;;2.10;99.90;;;;;;4936034;29;20210;-66
2023/01/24 15:54:13;;;;;;;3.60;2.95;;;2.10;99.90;;;;;;4947708;29;20225;-67
2023/01/24 15:56:43;;;;;;;4.15;3.30;;;2.10;99.90;;;;;;4947349;29;20207;-67
2023/01/24 15:59:16;;;;;;;3.13;2.75;;;2.10;99.90;;;;;;4953375;28;20222;-67
2023/01/24 16:01:43;;;;;;;4.75;3.40;;;2.20;99.90;;;;;;4947945;29;20235;-67
2023/01/24 16:04:13;;;;;;;3.97;3.80;;;2.10;99.90;;;;;;4952766;29;20273;-67
2023/01/24 16:06:41;;;;;;;5.70;4.10;;;2.10;99.90;;;;;;4951603;29;20213;-67
2023/01/24 16:09:08;;;;;;;7.72;4.95;;;2.10;99.90;;;;;;4954456;28;20685;-67
2023/01/24 16:11:35;;;;;;;9.32;4.55;;;2.10;99.90;;;;;;4953291;29;20208;-67
2023/01/24 16:14:04;;;;;;;9.10;5.32;;;2.10;99.90;;;;;;4952853;29;20205;-67
2023/01/24 16:16:31;;;;;;;4.95;3.03;;;2.10;99.90;;;;;;4954155;29;20205;-68
2023/01/24 16:18:58;;;;;;;8.82;5.07;;;2.10;99.90;;;;;;4953929;28;20672;-67
2023/01/24 16:21:25;;;;;;;7.53;4.28;;;2.10;99.90;;;;;;4954195;28;20674;-68
2023/01/24 16:23:51;;;;;;;12.40;4.22;;;2.10;99.90;;;;;;4953119;29;20221;-68
2023/01/24 16:26:23;;;;;;;4.57;3.08;;;2.10;99.90;;;;;;4952776;28;20583;-67
2023/01/24 16:28:50;;;;;;;2.95;2.55;;;2.10;99.90;;;;;;4954913;28;20256;-68
2023/01/24 16:31:18;;;;;;;9.05;4.65;;;2.00;99.90;;;;;;4953783;28;20235;-67
2023/01/24 16:33:45;;;;;;;11.40;4.47;;;2.00;99.90;;;;;;4953353;28;20209;-68
2023/01/24 16:36:13;;;;;;;6.95;3.92;;;2.00;99.90;;;;;;4954330;29;20600;-67
2023/01/24 16:38:41;;;;;;;7.80;2.70;;;2.10;99.90;;;;;;4946657;28;20677;-67
2023/01/24 16:41:08;;;;;;;8.75;4.65;;;2.00;99.90;;;;;;4950078;29;20221;-67
2023/01/24 16:43:35;;;;;;;7.25;4.63;;;2.00;99.90;;;;;;4952358;28;20221;-67
2023/01/24 16:46:01;;;;;;;2.83;2.72;;;1.80;99.90;;;;;;4952747;28;20522;-66
2023/01/24 16:48:30;;;;;;;6.07;3.28;;;2.00;99.90;;;;;;4953423;29;20233;-65
2023/01/24 16:50:57;;;;;;;5.00;3.45;;;1.90;99.90;;;;;;4957775;28;20216;-66
2023/01/24 16:53:24;;;;;;;5.32;2.20;;;1.90;99.90;;;;;;4954779;28;20258;-66
2023/01/24 16:55:57;;;;;;;4.20;4.00;;;1.80;99.90;;;;;;4953417;28;20372;-66
2023/01/24 16:58:24;;;;;;;4.35;1.85;;;1.80;99.90;;;;;;4954033;28;20225;-66
2023/01/24 17:00:51;;;;;;;6.82;2.55;;;1.80;99.90;;;;;;4952593;28;20220;-67
2023/01/24 17:03:17;;;;;;;5.70;2.83;;;1.80;99.90;;;;;;4950795;29;20221;-68
2023/01/24 17:05:45;;;;;;;6.00;5.38;;;1.80;99.90;;;;;;4952546;29;20231;-67
2023/01/24 17:08:13;;;;;;;8.55;5.35;;;1.80;99.90;;;;;;4949938;28;20571;-67
2023/01/24 17:10:41;;;;;;;11.88;5.68;;;1.80;99.90;;;;;;4944532;29;20225;-67
2023/01/24 17:13:07;;;;;;;3.72;3.42;;;1.80;99.90;;;;;;4950732;29;20213;-67
2023/01/24 17:15:36;;;;;;;15.05;5.97;;;1.80;99.90;;;;;;4952675;28;20543;-66
2023/01/24 17:18:03;;;;;;;18.50;4.70;;;1.90;99.90;;;;;;4953635;28;20201;-67
2023/01/24 17:20:30;;;;;;;5.45;2.70;;;1.90;99.90;;;;;;4950799;28;20205;-68
2023/01/24 17:23:00;;;;;;;4.30;3.88;;;1.90;99.90;;;;;;4952037;29;20198;-67
2023/01/24 17:25:26;;;;;;;3.40;3.30;;;2.00;99.90;;;;;;4951723;29;20272;-66
2023/01/24 17:27:53;;;;;;;5.50;4.43;;;1.90;99.90;;;;;;4951706;28;20209;-67
2023/01/24 17:30:20;;;;;;;3.05;2.88;;;1.90;99.90;;;;;;4952671;29;20321;-68
2023/01/24 17:32:47;;;;;;;5.10;4.63;;;1.90;99.90;;;;;;4951421;28;20524;-66
2023/01/24 17:35:14;;;;;;;9.82;5.15;;;1.80;99.90;;;;;;4951848;29;20811;-67
2023/01/24 17:37:41;;;;;;;4.05;3.70;;;1.80;99.90;;;;;;4946113;28;20212;-67
2023/01/24 17:40:11;;;;;;;10.07;5.15;;;1.80;99.90;;;;;;4952414;29;20228;-65
2023/01/24 17:42:38;;;;;;;5.78;3.92;;;1.80;99.90;;;;;;4952161;28;20291;-65
2023/01/24 17:45:05;;;;;;;11.27;6.05;;;1.80;99.90;;;;;;4951188;28;20396;-66
2023/01/24 17:47:32;;;;;;;17.02;8.05;;;1.80;99.90;;;;;;4950762;28;20209;-67
2023/01/24 17:49:59;;;;;;;7.00;6.40;;;1.90;99.90;;;;;;4950649;29;20698;-66
2023/01/24 17:52:26;;;;;;;17.45;3.97;;;1.90;99.90;;;;;;4951530;29;20213;-66
2023/01/24 17:54:52;;;;;;;2.58;1.92;;;1.90;99.90;;;;;;4950351;29;20228;-66
2023/01/24 17:57:20;;;;;;;3.85;3.25;;;1.90;99.90;;;;;;4950298;29;20210;-67
2023/01/24 17:59:47;;;;;;;5.68;5.05;;;1.90;99.90;;;;;;4950778;29;20236;-67
2023/01/24 18:02:14;;;;;;;2.55;2.45;;;1.90;99.90;;;;;;4952511;28;20215;-66
2023/01/24 18:04:40;;;;;;;3.83;1.75;;;1.90;99.90;;;;;;4950081;29;20302;-66
2023/01/24 18:07:07;;;;;;;3.15;2.75;;;1.90;99.90;;;;;;4950577;29;20235;-66
2023/01/24 18:09:34;;;;;;;3.58;3.00;;;1.90;99.90;;;;;;4950712;28;20229;-66
2023/01/24 18:12:00;;;;;;;2.65;2.50;;;1.90;99.90;;;;;;4952100;28;20213;-66
2023/01/24 18:14:30;;;;;;;9.40;3.00;;;1.90;99.90;;;;;;4950195;28;20216;-66
2023/01/24 18:16:56;;;;;;;4.38;3.80;;;2.00;99.90;;;;;;4952815;29;20201;-66
2023/01/24 18:19:23;;;;;;;5.43;4.45;;;2.00;99.90;;;;;;4950722;29;20321;-67
2023/01/24 18:21:50;;;;;;;3.35;3.13;;;2.00;99.90;;;;;;4952452;29;20209;-66
2023/01/24 18:24:17;;;;;;;5.35;4.95;;;2.00;99.90;;;;;;4950095;29;20683;-67
2023/01/24 18:26:43;;;;;;;4.90;2.63;;;1.90;99.90;;;;;;4950900;29;20637;-67